createdAt,value
2018-06-20T00:01:18.149Z,17.39
2018-06-20T00:03:48.411Z,17.47
2018-06-20T00:06:26.582Z,17.47
2018-06-20T00:08:55.855Z,17.53
2018-06-20T00:11:25.567Z,17.61
2018-06-20T00:13:55.684Z,17.76
2018-06-20T00:16:25.151Z,17.73
2018-06-20T00:18:54.066Z,17.53
2018-06-20T00:21:23.334Z,17.36
2018-06-20T00:23:52.387Z,17.26
2018-06-20T00:26:21.381Z,17.22
2018-06-20T00:28:50.679Z,17.17
2018-06-20T00:31:19.994Z,17.04
2018-06-20T00:33:49.092Z,17.00
2018-06-20T00:36:18.079Z,16.87
2018-06-20T00:38:47.252Z,16.84
2018-06-20T00:41:16.479Z,16.81
2018-06-20T00:43:45.661Z,16.76
2018-06-20T00:46:14.886Z,16.75
2018-06-20T00:48:44.159Z,16.73
2018-06-20T00:51:13.399Z,16.83
2018-06-20T00:53:42.871Z,17.05
2018-06-20T00:56:19.582Z,16.93
2018-06-20T00:58:49.074Z,17.00
2018-06-20T01:01:18.388Z,16.96
2018-06-20T01:03:47.755Z,16.79
2018-06-20T01:06:17.131Z,16.72
2018-06-20T01:08:50.334Z,16.83
2018-06-20T01:11:19.550Z,16.58
2018-06-20T01:13:48.902Z,16.51
2018-06-20T01:16:18.055Z,16.44
2018-06-20T01:18:47.435Z,16.43
2018-06-20T01:21:16.791Z,16.37
2018-06-20T01:23:46.414Z,16.34
2018-06-20T01:26:15.779Z,16.28
2018-06-20T01:28:45.024Z,16.23
2018-06-20T01:31:14.259Z,16.24
2018-06-20T01:33:43.322Z,16.15
2018-06-20T01:36:12.783Z,16.10
2018-06-20T01:38:41.945Z,16.06
2018-06-20T01:41:11.148Z,15.97
2018-06-20T01:43:40.349Z,16.06
2018-06-20T01:46:09.454Z,16.03
2018-06-20T01:48:38.609Z,16.10
2018-06-20T01:51:07.843Z,16.15
2018-06-20T01:53:37.031Z,16.22
2018-06-20T01:56:06.343Z,16.18
2018-06-20T01:58:35.388Z,16.26
2018-06-20T02:01:04.903Z,16.22
2018-06-20T02:03:34.253Z,16.46
2018-06-20T02:06:03.562Z,16.42
2018-06-20T02:08:32.695Z,16.44
2018-06-20T02:11:02.275Z,16.46
2018-06-20T02:13:31.398Z,16.44
2018-06-20T02:16:00.654Z,16.47
2018-06-20T02:18:29.694Z,16.45
2018-06-20T02:20:58.722Z,16.41
2018-06-20T02:23:27.903Z,16.51
2018-06-20T02:25:57.426Z,16.57
2018-06-20T02:28:26.593Z,16.59
2018-06-20T02:30:55.871Z,16.62
2018-06-20T02:33:24.977Z,16.60
2018-06-20T02:35:54.403Z,16.61
2018-06-20T02:38:23.796Z,16.62
2018-06-20T02:40:53.020Z,16.70
2018-06-20T02:43:22.213Z,16.84
2018-06-20T02:45:51.475Z,16.82
2018-06-20T02:48:20.522Z,16.79
2018-06-20T02:50:49.521Z,16.74
2018-06-20T02:53:18.696Z,16.80
2018-06-20T02:55:47.907Z,17.03
2018-06-20T02:58:17.116Z,17.05
2018-06-20T03:00:46.198Z,16.94
2018-06-20T03:03:15.575Z,17.00
2018-06-20T03:05:44.697Z,16.93
2018-06-20T03:08:13.874Z,16.96
2018-06-20T03:10:43.106Z,16.96
2018-06-20T03:13:12.604Z,16.93
2018-06-20T03:15:42.109Z,16.93
2018-06-20T03:18:11.318Z,17.02
2018-06-20T03:20:40.504Z,17.01
2018-06-20T03:23:09.712Z,17.13
2018-06-20T03:25:39.191Z,17.04
2018-06-20T03:28:08.481Z,17.06
2018-06-20T03:30:38.016Z,17.16
2018-06-20T03:33:07.600Z,17.12
2018-06-20T03:35:36.810Z,17.18
2018-06-20T03:38:06.102Z,17.21
2018-06-20T03:40:35.249Z,17.23
2018-06-20T03:43:04.670Z,17.26
2018-06-20T03:45:34.126Z,17.27
2018-06-20T03:48:03.210Z,17.37
2018-06-20T03:50:32.415Z,17.34
2018-06-20T03:53:01.680Z,17.36
2018-06-20T03:55:30.907Z,17.49
2018-06-20T03:58:00.127Z,17.40
2018-06-20T04:03:25.004Z,17.54
2018-06-20T04:05:54.218Z,17.67
2018-06-20T04:08:23.437Z,17.69
2018-06-20T04:10:52.418Z,17.71
2018-06-20T04:13:21.724Z,17.85
2018-06-20T04:15:51.025Z,17.82
2018-06-20T04:18:20.223Z,17.80
2018-06-20T04:20:49.427Z,17.87
2018-06-20T04:23:18.704Z,17.92
2018-06-20T04:25:47.907Z,17.98
2018-06-20T04:28:17.365Z,18.02
2018-06-20T04:30:46.708Z,18.02
2018-06-20T04:33:15.875Z,18.02
2018-06-20T04:35:45.384Z,18.18
2018-06-20T04:38:14.701Z,18.14
2018-06-20T04:40:43.964Z,18.26
2018-06-20T04:43:13.087Z,18.13
2018-06-20T04:45:42.194Z,18.12
2018-06-20T04:48:12.346Z,18.26
2018-06-20T04:50:41.566Z,18.53
2018-06-20T04:53:10.671Z,18.46
2018-06-20T04:55:40.064Z,18.37
2018-06-20T04:58:09.174Z,18.63
2018-06-20T05:00:38.423Z,18.82
2018-06-20T05:03:07.588Z,18.85
2018-06-20T05:09:13.764Z,18.70
2018-06-20T05:11:42.885Z,18.68
2018-06-20T05:14:12.174Z,18.72
2018-06-20T05:16:41.495Z,18.91
2018-06-20T05:19:10.553Z,18.96
2018-06-20T05:21:39.913Z,18.94
2018-06-20T05:24:08.969Z,18.94
2018-06-20T05:26:38.100Z,18.90
2018-06-20T05:29:07.450Z,18.96
2018-06-20T05:31:36.798Z,19.05
2018-06-20T05:34:06.079Z,18.97
2018-06-20T05:36:35.284Z,18.94
2018-06-20T05:39:06.826Z,18.99
2018-06-20T05:41:36.059Z,19.12
2018-06-20T05:44:05.339Z,19.05
2018-06-20T05:46:34.533Z,19.02
2018-06-20T05:49:04.016Z,19.22
2018-06-20T05:51:33.459Z,19.17
2018-06-20T05:54:02.619Z,19.23
2018-06-20T05:56:31.825Z,19.19
2018-06-20T05:59:00.915Z,19.12
2018-06-20T06:01:30.136Z,19.10
2018-06-20T06:03:59.294Z,19.07
2018-06-20T06:06:28.519Z,19.21
2018-06-20T06:08:57.850Z,19.37
2018-06-20T06:11:27.225Z,19.34
2018-06-20T06:13:56.507Z,19.44
2018-06-20T06:16:25.731Z,19.54
2018-06-20T06:18:55.111Z,19.66
2018-06-20T06:21:24.328Z,19.61
2018-06-20T06:23:53.524Z,19.76
2018-06-20T06:26:22.386Z,19.69
2018-06-20T06:28:51.731Z,19.81
2018-06-20T06:31:20.503Z,19.80
2018-06-20T06:33:49.307Z,20.03
2018-06-20T06:36:18.707Z,19.95
2018-06-20T06:38:47.874Z,19.94
2018-06-20T06:41:17.010Z,19.87
2018-06-20T06:43:46.146Z,19.98
2018-06-20T06:46:15.400Z,19.89
2018-06-20T06:48:44.478Z,19.99
2018-06-20T06:51:13.287Z,19.92
2018-06-20T06:53:42.827Z,20.25
2018-06-20T06:56:12.386Z,20.42
2018-06-20T06:58:41.665Z,20.41
2018-06-20T07:01:10.806Z,20.55
2018-06-20T07:03:42.284Z,20.64
2018-06-20T07:06:11.564Z,20.46
2018-06-20T07:08:40.893Z,20.55
2018-06-20T07:11:10.198Z,20.83
2018-06-20T07:13:39.327Z,21.13
2018-06-20T07:16:08.566Z,21.12
2018-06-20T07:18:37.826Z,21.18
2018-06-20T07:21:06.715Z,20.74
2018-06-20T07:23:35.903Z,20.90
2018-06-20T07:26:05.011Z,21.05
2018-06-20T07:28:33.791Z,21.09
2018-06-20T07:31:04.194Z,21.54
2018-06-20T07:33:33.773Z,21.48
2018-06-20T07:36:03.567Z,21.30
2018-06-20T07:38:32.327Z,21.35
2018-06-20T07:41:01.179Z,21.43
2018-06-20T07:43:30.370Z,21.58
2018-06-20T07:45:59.335Z,22.03
2018-06-20T07:48:28.542Z,21.77
2018-06-20T07:50:57.714Z,22.12
2018-06-20T07:53:26.906Z,22.40
2018-06-20T07:55:55.939Z,22.24
2018-06-20T07:59:32.218Z,22.30
2018-06-20T08:04:21.333Z,22.50
2018-06-20T08:06:55.659Z,22.71
2018-06-20T08:09:29.904Z,22.69
2018-06-20T08:12:04.651Z,22.77
2018-06-20T08:16:45.848Z,22.60
2018-06-20T08:19:20.374Z,22.54
2018-06-20T08:21:49.224Z,22.92
2018-06-20T08:24:18.821Z,23.18
2018-06-20T08:26:48.142Z,23.42
2018-06-20T08:29:17.777Z,23.22
2018-06-20T08:31:47.032Z,23.33
2018-06-20T08:34:16.511Z,23.49
2018-06-20T08:36:45.782Z,23.42
2018-06-20T08:39:14.886Z,23.61
2018-06-20T08:41:44.297Z,23.63
2018-06-20T08:44:13.468Z,23.66
2018-06-20T08:46:42.872Z,23.84
2018-06-20T08:49:12.160Z,24.21
2018-06-20T08:51:41.398Z,23.83
2018-06-20T08:54:10.685Z,23.93
2018-06-20T08:56:43.326Z,23.94
2018-06-20T08:59:13.631Z,24.12
2018-06-20T09:01:42.836Z,24.17
2018-06-20T09:04:17.169Z,23.97
2018-06-20T09:06:51.600Z,24.33
2018-06-20T09:09:25.971Z,24.42
2018-06-20T09:12:00.385Z,24.57
2018-06-20T09:14:32.589Z,24.75
2018-06-20T09:17:07.063Z,24.64
2018-06-20T09:19:41.920Z,24.25
2018-06-20T09:22:11.310Z,24.06
2018-06-20T09:24:40.540Z,24.42
2018-06-20T09:27:09.932Z,24.18
2018-06-20T09:29:39.191Z,24.59
2018-06-20T09:32:08.528Z,24.65
2018-06-20T09:34:37.844Z,24.76
2018-06-20T09:37:07.254Z,24.59
2018-06-20T09:39:36.456Z,24.83
2018-06-20T09:42:05.951Z,24.77
2018-06-20T09:44:35.118Z,24.83
2018-06-20T09:47:04.451Z,25.11
2018-06-20T09:49:33.576Z,25.42
2018-06-20T09:52:02.856Z,25.72
2018-06-20T09:54:32.121Z,25.44
2018-06-20T09:57:01.551Z,25.60
2018-06-20T09:59:36.000Z,25.37
2018-06-20T10:02:10.380Z,25.04
2018-06-20T10:04:44.630Z,25.45
2018-06-20T10:09:22.106Z,25.18
2018-06-20T10:11:56.349Z,25.21
2018-06-20T10:14:25.463Z,25.16
2018-06-20T10:16:55.080Z,25.45
2018-06-20T10:19:24.384Z,25.57
2018-06-20T10:21:53.936Z,26.34
2018-06-20T10:24:23.439Z,26.07
2018-06-20T10:26:52.738Z,25.68
2018-06-20T10:29:22.109Z,26.10
2018-06-20T10:31:51.332Z,25.83
2018-06-20T10:34:20.521Z,26.18
2018-06-20T10:36:49.625Z,25.88
2018-06-20T10:39:18.817Z,26.22
2018-06-20T10:41:48.124Z,26.25
2018-06-20T10:44:17.522Z,26.64
2018-06-20T10:46:51.776Z,26.20
2018-06-20T10:49:24.071Z,26.64
2018-06-20T10:51:53.239Z,26.69
2018-06-20T10:54:22.713Z,26.71
2018-06-20T10:56:57.031Z,26.66
2018-06-20T10:59:31.487Z,26.40
2018-06-20T11:02:05.819Z,26.34
2018-06-20T11:04:40.243Z,26.15
2018-06-20T11:07:14.612Z,26.28
2018-06-20T11:09:49.102Z,26.26
2018-06-20T11:12:23.377Z,26.26
2018-06-20T11:14:55.650Z,25.73
2018-06-20T11:17:25.132Z,25.78
2018-06-20T11:19:54.399Z,25.69
2018-06-20T11:22:23.834Z,25.74
2018-06-20T11:24:53.106Z,25.75
2018-06-20T11:27:22.834Z,25.78
2018-06-20T11:29:52.020Z,25.87
2018-06-20T11:32:21.577Z,26.00
2018-06-20T11:34:50.915Z,25.62
2018-06-20T11:37:20.081Z,25.55
2018-06-20T11:39:49.229Z,25.66
2018-06-20T11:42:18.211Z,25.59
2018-06-20T11:44:47.588Z,25.72
2018-06-20T11:47:22.078Z,25.53
2018-06-20T11:49:51.523Z,25.67
2018-06-20T11:52:26.050Z,26.01
2018-06-20T11:55:04.142Z,26.29
2018-06-20T11:57:34.348Z,26.50
2018-06-20T12:00:08.596Z,26.63
2018-06-20T12:02:42.943Z,26.55
2018-06-20T12:05:17.156Z,26.43
2018-06-20T12:07:51.395Z,25.72
2018-06-20T12:10:25.683Z,25.70
2018-06-20T12:13:00.061Z,25.68
2018-06-20T12:15:34.577Z,25.80
2018-06-20T12:18:08.907Z,25.81
2018-06-20T12:20:43.289Z,26.05
2018-06-20T12:23:17.408Z,26.03
2018-06-20T12:25:51.919Z,26.14
2018-06-20T12:28:27.187Z,26.45
2018-06-20T12:31:01.452Z,27.06
2018-06-20T12:33:35.946Z,26.88
2018-06-20T12:36:10.492Z,27.33
2018-06-20T12:38:44.992Z,27.60
2018-06-20T12:41:19.351Z,27.67
2018-06-20T12:43:53.841Z,27.39
2018-06-20T12:46:28.230Z,27.90
2018-06-20T12:48:57.764Z,27.80
2018-06-20T12:51:27.131Z,27.45
2018-06-20T12:53:56.165Z,28.09
2018-06-20T12:56:25.614Z,28.03
2018-06-20T12:58:55.049Z,27.96
2018-06-20T13:01:24.204Z,27.92
2018-06-20T13:03:53.274Z,27.86
2018-06-20T13:06:22.510Z,27.39
2018-06-20T13:08:52.078Z,27.57
2018-06-20T13:11:21.315Z,28.83
2018-06-20T13:13:50.618Z,30.27
2018-06-20T13:16:21.066Z,29.83
2018-06-20T13:18:59.867Z,30.08
2018-06-20T13:21:29.574Z,30.46
2018-06-20T13:23:58.841Z,29.81
2018-06-20T13:26:28.011Z,29.48
2018-06-20T13:28:57.351Z,29.57
2018-06-20T13:31:31.611Z,30.01
2018-06-20T13:34:05.757Z,29.17
2018-06-20T13:36:40.185Z,29.12
2018-06-20T13:39:14.422Z,29.38
2018-06-20T13:41:48.725Z,28.98
2018-06-20T13:44:23.530Z,28.25
2018-06-20T13:46:57.826Z,28.88
2018-06-20T13:49:27.351Z,28.45
2018-06-20T13:51:57.269Z,30.21
2018-06-20T13:54:26.635Z,29.22
2018-06-20T13:56:55.932Z,28.89
2018-06-20T13:59:25.259Z,28.29
2018-06-20T14:01:54.509Z,28.19
2018-06-20T14:04:23.590Z,27.81
2018-06-20T14:06:52.983Z,30.42
2018-06-20T14:09:22.115Z,29.66
2018-06-20T14:11:51.522Z,29.00
2018-06-20T14:14:20.793Z,29.06
2018-06-20T14:16:50.007Z,29.25
2018-06-20T14:19:23.369Z,30.19
2018-06-20T14:21:52.638Z,32.51
2018-06-20T14:24:21.921Z,33.76
2018-06-20T14:26:51.043Z,33.37
2018-06-20T14:29:20.167Z,31.07
2018-06-20T14:31:54.625Z,29.71
2018-06-20T14:34:28.863Z,29.32
2018-06-20T14:37:03.082Z,30.06
2018-06-20T14:39:37.471Z,29.10
2018-06-20T14:42:11.993Z,30.14
2018-06-20T14:44:41.210Z,29.92
2018-06-20T14:47:11.087Z,29.66
2018-06-20T14:49:40.304Z,28.61
2018-06-20T14:52:09.552Z,28.20
2018-06-20T14:54:38.792Z,28.05
2018-06-20T14:57:08.064Z,28.85
2018-06-20T14:59:37.366Z,28.79
2018-06-20T15:02:07.356Z,28.64
2018-06-20T15:04:36.682Z,28.38
2018-06-20T15:07:05.940Z,28.45
2018-06-20T15:09:35.198Z,28.65
2018-06-20T15:12:04.515Z,28.43
2018-06-20T15:14:33.793Z,28.46
2018-06-20T15:17:08.168Z,28.16
2018-06-20T15:19:37.428Z,28.65
2018-06-20T15:22:06.761Z,28.42
2018-06-20T15:24:36.000Z,28.59
2018-06-20T15:27:10.325Z,29.04
2018-06-20T15:29:44.730Z,29.77
2018-06-20T15:32:19.195Z,30.90
2018-06-20T15:34:54.068Z,31.34
2018-06-20T15:37:28.520Z,30.94
2018-06-20T15:39:57.851Z,31.78
2018-06-20T15:42:27.166Z,31.26
2018-06-20T15:44:57.189Z,31.25
2018-06-20T15:47:27.403Z,31.23
2018-06-20T15:49:56.507Z,31.72
2018-06-20T15:52:25.727Z,31.52
2018-06-20T15:54:55.086Z,32.89
2018-06-20T15:57:24.188Z,31.08
2018-06-20T15:59:53.663Z,30.17
2018-06-20T16:02:22.908Z,30.20
2018-06-20T16:04:52.166Z,31.60
2018-06-20T16:07:21.571Z,30.60
2018-06-20T16:09:56.751Z,30.00
2018-06-20T16:12:27.307Z,32.52
2018-06-20T16:14:57.266Z,30.67
2018-06-20T16:17:26.489Z,29.80
2018-06-20T16:20:00.838Z,29.97
2018-06-20T16:22:35.145Z,29.69
2018-06-20T16:25:09.524Z,29.46
2018-06-20T16:27:43.966Z,29.47
2018-06-20T16:30:18.190Z,29.50
2018-06-20T16:32:47.628Z,29.91
2018-06-20T16:35:16.688Z,29.82
2018-06-20T16:37:45.992Z,29.43
2018-06-20T16:40:15.056Z,29.17
2018-06-20T16:42:44.174Z,28.84
2018-06-20T16:45:13.970Z,28.77
2018-06-20T16:47:43.455Z,28.76
2018-06-20T16:50:12.684Z,28.55
2018-06-20T16:52:41.898Z,28.64
2018-06-20T16:55:11.651Z,28.86
2018-06-20T16:57:41.088Z,28.80
2018-06-20T17:00:10.281Z,28.60
2018-06-20T17:02:41.075Z,28.61
2018-06-20T17:05:16.775Z,28.44
2018-06-20T17:07:45.939Z,28.08
2018-06-20T17:10:15.491Z,28.02
2018-06-20T17:12:49.719Z,27.87
2018-06-20T17:15:24.015Z,27.82
2018-06-20T17:17:58.741Z,27.58
2018-06-20T17:20:33.674Z,27.32
2018-06-20T17:23:08.102Z,27.33
2018-06-20T17:25:37.629Z,27.17
2018-06-20T17:28:06.988Z,27.22
2018-06-20T17:30:36.263Z,27.25
2018-06-20T17:33:05.603Z,27.20
2018-06-20T17:35:35.373Z,27.18
2018-06-20T17:38:04.455Z,27.22
2018-06-20T17:40:33.742Z,27.54
2018-06-20T17:43:03.062Z,27.68
2018-06-20T17:45:32.331Z,27.11
2018-06-20T17:48:01.671Z,27.17
2018-06-20T17:50:30.991Z,26.98
2018-06-20T17:53:00.909Z,26.83
2018-06-20T17:55:30.352Z,26.84
2018-06-20T17:57:59.604Z,26.73
2018-06-20T18:00:29.038Z,26.70
2018-06-20T18:02:58.358Z,26.74
2018-06-20T18:05:37.763Z,26.62
2018-06-20T18:08:12.137Z,26.39
2018-06-20T18:10:46.546Z,26.29
2018-06-20T18:13:15.806Z,26.13
2018-06-20T18:15:50.081Z,25.98
2018-06-20T18:18:19.447Z,25.94
2018-06-20T18:20:48.823Z,26.05
2018-06-20T18:23:18.089Z,25.91
2018-06-20T18:25:48.490Z,25.68
2018-06-20T18:28:17.750Z,25.59
2018-06-20T18:30:47.081Z,25.48
2018-06-20T18:33:16.485Z,25.43
2018-06-20T18:35:45.664Z,25.34
2018-06-20T18:38:14.920Z,25.11
2018-06-20T18:40:44.226Z,25.09
2018-06-20T18:43:13.398Z,24.93
2018-06-20T18:45:42.926Z,24.86
2018-06-20T18:48:17.316Z,24.77
2018-06-20T18:50:46.648Z,24.56
2018-06-20T18:53:16.201Z,24.41
2018-06-20T18:55:45.585Z,24.47
2018-06-20T18:58:19.988Z,24.14
2018-06-20T19:00:54.450Z,24.17
2018-06-20T19:03:28.931Z,24.10
2018-06-20T19:07:02.266Z,23.90
2018-06-20T19:09:31.519Z,23.81
2018-06-20T19:12:00.852Z,23.63
2018-06-20T19:14:30.080Z,23.53
2018-06-20T19:17:00.225Z,23.45
2018-06-20T19:19:29.467Z,23.35
2018-06-20T19:21:59.319Z,23.27
2018-06-20T19:24:28.551Z,23.23
2018-06-20T19:26:57.878Z,23.17
2018-06-20T19:29:27.156Z,23.11
2018-06-20T19:31:57.665Z,23.03
2018-06-20T19:34:26.847Z,22.91
2018-06-20T19:36:56.298Z,22.74
2018-06-20T19:39:31.645Z,22.64
2018-06-20T19:42:01.253Z,22.53
2018-06-20T19:44:34.467Z,22.47
2018-06-20T19:47:05.618Z,22.37
2018-06-20T19:49:34.941Z,22.31
2018-06-20T19:52:04.394Z,22.18
2018-06-20T19:54:33.914Z,22.02
2018-06-20T19:57:03.319Z,21.95
2018-06-20T19:59:32.503Z,21.84
2018-06-20T20:02:01.926Z,21.75
2018-06-20T20:04:31.205Z,21.70
2018-06-20T20:07:00.503Z,21.69
2018-06-20T20:09:29.911Z,21.67
2018-06-20T20:11:59.430Z,21.60
2018-06-20T20:14:28.770Z,21.44
2018-06-20T20:16:58.143Z,21.34
2018-06-20T20:19:27.266Z,21.25
2018-06-20T20:21:56.765Z,21.19
2018-06-20T20:24:26.626Z,21.14
2018-06-20T20:26:55.918Z,21.08
2018-06-20T20:29:25.082Z,21.05
2018-06-20T20:31:54.330Z,21.00
2018-06-20T20:34:23.799Z,20.90
2018-06-20T20:36:53.503Z,20.81
2018-06-20T20:39:22.594Z,20.84
2018-06-20T20:41:51.789Z,20.81
2018-06-20T20:44:20.885Z,20.71
2018-06-20T20:46:50.267Z,20.71
2018-06-20T20:49:19.853Z,20.59
2018-06-20T20:51:49.682Z,20.53
2018-06-20T20:54:18.935Z,20.49
2018-06-20T20:56:48.151Z,20.42
2018-06-20T20:59:17.403Z,20.38
2018-06-20T21:01:46.629Z,20.28
2018-06-20T21:04:15.859Z,20.27
2018-06-20T21:06:45.094Z,20.21
2018-06-20T21:09:15.171Z,20.21
2018-06-20T21:11:44.435Z,20.15
2018-06-20T21:14:15.898Z,20.06
2018-06-20T21:16:45.166Z,20.04
2018-06-20T21:19:14.354Z,19.97
2018-06-20T21:21:43.590Z,19.94
2018-06-20T21:24:12.641Z,19.84
2018-06-20T21:26:41.964Z,19.80
2018-06-20T21:29:11.258Z,19.73
2018-06-20T21:31:40.818Z,19.69
2018-06-20T21:34:09.747Z,19.61
2018-06-20T21:36:38.950Z,19.56
2018-06-20T21:39:09.982Z,19.48
2018-06-20T21:41:39.475Z,19.50
2018-06-20T21:44:08.856Z,19.47
2018-06-20T21:46:38.032Z,19.44
2018-06-20T21:49:07.163Z,19.40
2018-06-20T21:51:36.516Z,19.43
2018-06-20T21:54:05.710Z,19.36
2018-06-20T21:56:35.098Z,19.29
2018-06-20T21:59:04.152Z,19.27
2018-06-20T22:01:33.502Z,19.21
2018-06-20T22:04:02.667Z,19.18
2018-06-20T22:06:31.899Z,19.09
2018-06-20T22:09:01.032Z,19.08
2018-06-20T22:11:34.415Z,19.05
2018-06-20T22:14:03.689Z,18.98
2018-06-20T22:16:33.323Z,18.96
2018-06-20T22:19:03.262Z,18.94
2018-06-20T22:21:32.498Z,18.90
2018-06-20T22:24:03.329Z,18.89
2018-06-20T22:26:32.654Z,18.83
2018-06-20T22:29:01.735Z,18.81
2018-06-20T22:31:31.641Z,18.81
2018-06-20T22:34:01.154Z,18.78
2018-06-20T22:36:30.377Z,18.72
2018-06-20T22:39:01.253Z,18.68
2018-06-20T22:41:30.914Z,18.63
2018-06-20T22:44:00.389Z,18.56
2018-06-20T22:46:29.698Z,18.49
2018-06-20T22:49:01.045Z,18.46
2018-06-20T22:51:30.837Z,18.46
2018-06-20T22:53:59.865Z,18.41
2018-06-20T22:56:29.088Z,18.36
2018-06-20T22:58:59.050Z,18.28
2018-06-20T23:01:28.553Z,18.23
2018-06-20T23:03:57.930Z,18.28
2018-06-20T23:06:27.183Z,18.20
2018-06-20T23:08:56.239Z,18.20
2018-06-20T23:11:25.499Z,18.15
2018-06-20T23:13:54.572Z,18.18
2018-06-20T23:16:23.927Z,18.13
2018-06-20T23:18:55.993Z,18.08
2018-06-20T23:21:25.250Z,18.09
2018-06-20T23:23:54.427Z,18.01
2018-06-20T23:26:23.521Z,17.96
2018-06-20T23:28:52.842Z,18.00
2018-06-20T23:31:22.130Z,17.95
2018-06-20T23:33:51.299Z,17.92
2018-06-20T23:36:20.634Z,17.95
2018-06-20T23:38:50.000Z,17.89
2018-06-20T23:41:19.290Z,17.83
2018-06-20T23:43:49.559Z,17.83
2018-06-20T23:46:19.154Z,17.70
2018-06-20T23:48:48.199Z,17.76
2018-06-20T23:51:17.487Z,17.72
2018-06-20T23:53:47.031Z,17.70
2018-06-20T23:56:16.145Z,17.67
2018-06-20T23:58:45.318Z,17.68
